Latest Coastal Weather Observations for Noarlunga

IDS60701

Issued at 1:41 am CST Wednesday 27 May 2015 (issued every 10 minutes, with the page automatically refreshed every 10 minutes)

About coastal observations | Map of coastal stations | Coastal observations for SA | Marine services | Other Formats
Station Details ID: 023885 Name: NOARLUNGA Lat: -35.16 Lon: 138.51 Height: 55.0 m
Data from the previous 72 hours. | See also: Recent months at Noarlunga
Date/Time
CST
Temp

°C
Wind Pressure Rain
since 9am
mm
Weather Cloud Vis
km
Sea
Height
m
Swell
Dir
 
Speed
knots
Gust
knots
hPa Trend Height
m
Period
s
Dir
27/01:30am 14.6 N 4 6 - - 0.2 - - - - - - -
27/01:00am 14.5 N 4 6 - - 0.2 - - - - - - -
27/12:30am 14.8 NNE 6 9 - - 0.2 - - - - - - -
27/12:00am 15.0 NNE 6 9 - - 0.2 - - - - - - -
 
Date/Time
CST
Temp

°C
Wind Pressure Rain
since 9am
mm
Weather Cloud Vis
km
Sea
Height
m
Swell
Dir
 
Speed
knots
Gust
knots
hPa Trend Height
m
Period
s
Dir
26/11:30pm 15.4 N 5 6 - - 0.2 - - - - - - -
26/11:00pm 15.7 NNW 5 7 - - 0.2 - - - - - - -
26/10:30pm 15.5 N 4 5 - - 0.2 - - - - - - -
26/10:00pm 15.3 NNW 3 4 - - 0.2 - - - - - - -
26/09:30pm 15.4 NW 3 5 - - 0.0 - - - - - - -
26/09:00pm 15.6 NNW 4 5 - - 0.0 - - - - - - -
26/08:30pm 15.2 NW 1 3 - - 0.0 - - - - - - -
26/08:00pm 15.9 NNE 1 1 - - 0.0 - - - - - - -
26/07:30pm 16.1 NNE 2 2 - - 0.0 - - - - - - -
26/07:00pm 15.8 NNE 1 2 - - 0.0 - - - - - - -
26/06:30pm 15.8 NW 1 1 - - 0.0 - - - - - - -
26/06:00pm 16.2 ENE 3 4 - - 0.0 - - - - - - -
26/05:30pm 17.3 NE 2 3 - - 0.0 - - - - - - -
26/05:00pm 17.9 N 3 5 - - 0.0 - - - - - - -
26/04:30pm 18.6 N 5 7 - - 0.0 - - - - - - -
26/04:00pm 18.8 N 5 8 - - 0.0 - - - - - - -
26/03:30pm 19.5 N 6 8 - - 0.0 - - - - - - -
26/03:00pm 19.1 N 6 9 - - 0.0 - - - - - - -
26/02:30pm 19.4 N 6 8 - - 0.0 - - - - - - -
26/02:00pm 19.2 NNW 4 7 - - 0.0 - - - - - - -
26/01:30pm 18.3 NNW 7 9 - - 0.0 - - - - - - -
26/01:00pm 18.3 N 6 8 - - 0.0 - - - - - - -
26/12:30pm 18.6 N 7 11 - - 0.0 - - - - - - -
26/12:00pm 18.9 N 9 13 - - 0.0 - - - - - - -
26/11:30am 19.1 N 8 12 - - 0.0 - - - - - - -
26/11:00am 18.2 N 9 12 - - 0.0 - - - - - - -
26/10:30am 18.3 N 4 6 - - 0.0 - - - - - - -
26/10:00am 17.7 NNW 3 5 - - 0.0 - - - - - - -
26/09:30am 17.1 NNE 3 5 - - 0.0 - - - - - - -
26/09:00am 15.7 NNE 5 6 - - 0.0 - - - - - - -
26/08:30am 15.1 NE 4 5 - - 0.0 - - - - - - -
26/08:00am 14.6 NE 4 5 - - 0.0 - - - - - - -
26/07:30am 13.8 CALM 0 2 - - 0.0 - - - - - - -
26/07:00am 14.1 NW 2 3 - - 0.0 - - - - - - -
26/06:30am 14.8 NNE 4 6 - - 0.0 - - - - - - -
26/06:00am 14.5 NE 3 4 - - 0.0 - - - - - - -
26/05:30am 14.4 NNE 4 5 - - 0.0 - - - - - - -
26/05:00am 13.6 CALM 0 0 - - 0.0 - - - - - - -
26/04:30am 13.5 CALM 0 0 - - 0.0 - - - - - - -
26/04:00am 13.7 ESE 2 3 - - 0.0 - - - - - - -
26/03:30am 13.7 E 3 3 - - 0.0 - - - - - - -
26/03:00am 13.8 CALM 0 1 - - 0.0 - - - - - - -
26/02:30am 14.7 NE 3 4 - - 0.0 - - - - - - -
26/02:00am 15.2 NNE 4 6 - - 0.0 - - - - - - -
26/01:30am 15.1 NE 5 9 - - 0.0 - - - - - - -
26/01:00am 14.5 ENE 5 7 - - 0.0 - - - - - - -
26/12:30am 14.4 E 5 7 - - 0.0 - - - - - - -
26/12:00am 13.9 E 6 7 - - 0.0 - - - - - - -
 
Date/Time
CST
Temp

°C
Wind Pressure Rain
since 9am
mm
Weather Cloud Vis
km
Sea
Height
m
Swell
Dir
 
Speed
knots
Gust
knots
hPa Trend Height
m
Period
s
Dir
25/11:30pm 14.0 E 4 5 - - 0.0 - - - - - - -
25/11:00pm 13.9 ENE 4 5 - - 0.0 - - - - - - -
25/10:30pm 14.4 NE 4 5 - - 0.0 - - - - - - -
25/10:00pm 14.5 ENE 5 6 - - 0.0 - - - - - - -
25/09:30pm 14.7 ENE 4 5 - - 0.0 - - - - - - -
25/09:00pm 15.1 ENE 4 5 - - 0.0 - - - - - - -
25/08:30pm 15.4 ENE 7 9 - - 0.0 - - - - - - -
25/08:00pm 15.2 ENE 6 11 - - 0.0 - - - - - - -
25/07:30pm 15.1 ENE 5 8 - - 0.0 - - - - - - -
25/07:00pm 14.3 E 5 7 - - 0.0 - - - - - - -
25/06:30pm 14.4 CALM 0 2 - - 0.0 - - - - - - -
25/06:00pm 14.8 CALM 0 2 - - 0.0 - - - - - - -
25/05:30pm 15.3 CALM 0 0 - - 0.0 - - - - - - -
25/05:00pm 15.9 CALM 0 0 - - 0.0 - - - - - - -
25/04:30pm 16.4 SE 2 4 - - 0.0 - - - - - - -
25/04:00pm 16.9 SSW 2 2 - - 0.0 - - - - - - -
25/03:30pm 16.5 SSW 3 5 - - 0.0 - - - - - - -
25/03:00pm 16.9 W 4 5 - - 0.0 - - - - - - -
25/02:30pm 16.8 W 4 5 - - 0.0 - - - - - - -
25/02:00pm 18.0 W 5 8 - - 0.0 - - - - - - -
25/01:30pm 18.3 WNW 6 9 - - 0.0 - - - - - - -
25/01:00pm 18.7 WNW 4 7 - - 0.0 - - - - - - -
25/12:30pm 18.8 NW 6 9 - - 0.0 - - - - - - -
25/12:00pm 18.5 N 6 8 - - 0.0 - - - - - - -
25/11:30am 18.3 NNW 7 10 - - 0.0 - - - - - - -
25/11:00am 18.2 N 5 8 - - 0.0 - - - - - - -
25/10:30am 17.5 N 6 8 - - 0.0 - - - - - - -
25/10:00am 17.3 N 6 8 - - 0.0 - - - - - - -
25/09:30am 16.3 NNE 5 7 - - 0.0 - - - - - - -
25/09:00am 15.2 NE 4 7 - - 0.0 - - - - - - -
25/08:30am 14.2 ENE 2 3 - - 0.0 - - - - - - -
25/08:00am 12.3 ENE 3 4 - - 0.0 - - - - - - -
25/07:30am 11.1 ENE 3 4 - - 0.0 - - - - - - -
25/07:00am 10.9 ENE 3 4 - - 0.0 - - - - - - -
25/06:30am 10.9 E 3 4 - - 0.0 - - - - - - -
25/06:00am 10.7 ESE 3 4 - - 0.0 - - - - - - -
25/05:30am 12.0 E 1 2 - - 0.0 - - - - - - -
25/05:00am 13.0 CALM 0 0 - - 0.0 - - - - - - -
25/04:30am 13.3 NNE 2 4 - - 0.0 - - - - - - -
25/04:00am 13.7 NE 4 5 - - 0.0 - - - - - - -
25/03:30am 13.6 NE 5 7 - - 0.0 - - - - - - -
25/03:00am 12.8 NE 5 7 - - 0.0 - - - - - - -
25/02:30am 12.2 ENE 4 5 - - 0.0 - - - - - - -
25/02:00am 11.9 ESE 2 3 - - 0.0 - - - - - - -
25/01:30am 11.7 SE 2 3 - - 0.0 - - - - - - -
25/01:00am 12.0 E 2 3 - - 0.0 - - - - - - -
25/12:30am 12.1 E 2 3 - - 0.0 - - - - - - -
25/12:00am 12.1 N 2 3 - - 0.0 - - - - - - -
 
Date/Time
CST
Temp

°C
Wind Pressure Rain
since 9am
mm
Weather Cloud Vis
km
Sea
Height
m
Swell
Dir
 
Speed
knots
Gust
knots
hPa Trend Height
m
Period
s
Dir
24/11:30pm 12.7 ESE 1 3 - - 0.0 - - - - - - -
24/11:00pm 13.3 NE 2 3 - - 0.0 - - - - - - -
24/10:30pm 13.0 NE 3 4 - - 0.0 - - - - - - -
24/10:00pm 13.6 NE 4 6 - - 0.0 - - - - - - -
24/09:30pm 13.1 NE 5 7 - - 0.0 - - - - - - -
24/09:00pm 12.9 NNE 2 3 - - 0.0 - - - - - - -
24/08:30pm 12.7 ESE 6 7 - - 0.0 - - - - - - -
24/08:00pm 12.9 ESE 3 4 - - 0.0 - - - - - - -
24/07:30pm 13.0 ENE 4 6 - - 0.0 - - - - - - -
24/07:00pm 12.9 NNE 2 3 - - 0.0 - - - - - - -
24/06:30pm 13.3 ENE 3 4 - - 0.0 - - - - - - -
24/06:00pm 13.3 CALM 0 1 - - 0.0 - - - - - - -
24/05:30pm 13.8 ENE 3 4 - - 0.0 - - - - - - -
24/05:00pm 13.9 ESE 2 3 - - 0.0 - - - - - - -
24/04:30pm 14.5 CALM 0 0 - - 0.0 - - - - - - -
24/04:00pm 14.7 N 2 3 - - 0.0 - - - - - - -
24/03:30pm 15.0 NNE 3 4 - - 0.0 - - - - - - -
24/03:00pm 15.2 NNW 2 5 - - 0.0 - - - - - - -
24/02:30pm 15.6 N 4 7 - - 0.0 - - - - - - -
24/02:00pm 16.0 N 5 7 - - 0.0 - - - - - - -
24/01:30pm 15.4 N 5 7 - - 0.0 - - - - - - -
24/01:00pm 15.3 N 8 11 - - 0.0 - - - - - - -
24/12:30pm 15.6 N 9 13 - - 0.0 - - - - - - -
24/12:00pm 15.3 N 9 15 - - 0.0 - - - - - - -
24/11:30am 15.3 N 9 13 - - 0.0 - - - - - - -
24/11:00am 14.7 N 6 8 - - 0.0 - - - - - - -
24/10:30am 14.2 N 5 7 - - 0.0 - - - - - - -
24/10:00am 14.3 N 4 8 - - 0.0 - - - - - - -
24/09:30am 13.9 NE 1 2 - - 0.0 - - - - - - -
24/09:00am 11.8 ESE 1 2 - - 0.0 - - - - - - -
24/08:30am 9.8 SW 2 2 - - 0.0 - - - - - - -
24/08:00am 9.1 CALM 0 0 - - 0.0 - - - - - - -
24/07:30am 7.5 NW 1 2 - - 0.0 - - - - - - -
24/07:00am 8.6 CALM 0 1 - - 0.0 - - - - - - -
24/06:30am 7.9 ESE 2 2 - - 0.0 - - - - - - -
24/06:00am 7.7 ESE 2 2 - - 0.0 - - - - - - -
24/05:30am 7.4 ESE 2 3 - - 0.0 - - - - - - -
24/05:00am 7.4 CALM 0 2 - - 0.0 - - - - - - -
24/04:30am 7.1 ESE 1 2 - - 0.0 - - - - - - -
24/04:00am 7.9 E 2 2 - - 0.0 - - - - - - -
24/03:30am 7.5 E 1 2 - - 0.0 - - - - - - -
24/03:00am 8.0 E 2 3 - - 0.0 - - - - - - -
24/02:30am 8.0 CALM 0 0 - - 0.0 - - - - - - -
24/02:00am 8.2 E 2 4 - - 0.0 - - - - - - -

Other Formats:

Comma delimited format used in spreadsheet applications
http://www.bom.gov.au/fwo/IDS60701/IDS60701.94808.axf

JavaScript Object Notation format (JSON) in row-major order
http://www.bom.gov.au/fwo/IDS60701/IDS60701.94808.json